Accueil
METAR-TAF:

METAR-TAF

Aéroports :

Aéroport de Saint-Nazaire - Montoir

Saint-Nazaire, France

latitude: 47-19N, longitude: 002-10W, altitude: 3 m

Observation

Le bulletin a été fait il y a 33 minutes, à 02:30 UTC
Vent 4 kt de ouest/nord-ouest, variant entre ouest et nord-ouest
Température 12°C
Humidité 94%
Pression 1020 hPa
Visibilité 10 km ou plus
pas de nuages en-dessous de 1500 mètres et pas de cumulonimbus.

METAR: LFRZ 170230Z AUTO 29004KT 260V320 CAVOK 12/11 Q1020 NOSIG

Heure: 05:03 (03:03 UTC)

Prévision

Le bulletin a été fait il y a 4 heures et 3 minutes, à 23:00 UTC
Prévision valable du 17 à 00 UTC au 17 à 24 UTC
Vent 6 kt de nord-ouest
Visibilité 10 km ou plus
pas de nuages en-dessous de 1500 mètres et pas de cumulonimbus.

TAF: LFRZ 162300Z 1700/1724 31006KT CAVOK

Observations et prévisions météorologiques de plus de 4000 aéroports (messages METAR et TAF).

Les stations disponibles sont représentées par des disques jaunes et rouges sur la carte.

Passer la souris dessus pour voir le nom de la station.

Cliquer dessus pour voir les observations et prévisions météorologiques.

Pour changer de carte: cliquez sur les boutons verts avec une croix noire pour zoomer, sur le bouton vert avec un tiret pour effectuer un zoom arrière, ou sur les flèches vertes pour les cartes adjacentes.


METAR-TAF: